ADDS METAR Data INFO
IDs: Format: Raw Decoded Include TAF

Data at: 0254 UTC 21 Oct 2017

KMDW 210153Z 17009KT 10SM OVC250 21/09 A3005 RMK AO2 SLP172 T02110094
KMDW 210053Z 17009KT 9SM BKN250 22/09 A3005 RMK AO2 SLP173 T02170094
KMDW 202353Z 18009KT 10SM OVC250 22/10 A3006 RMK AO2 SLP174 T02220100 10267 20222 55002
KMDW 202253Z 17008KT 10SM BKN250 24/09 A3006 RMK AO2 SLP174 T02390094
KMDW 202153Z 18013KT 10SM BKN250 26/10 A3006 RMK AO2 SLP172 T02560100
KMDW 202053Z 17012KT 10SM BKN250 27/10 A3006 RMK AO2 SLP175 T02670100 56021
KMDW 201953Z 21012KT 10SM BKN250 26/10 A3008 RMK AO2 SLP179 T02610100
KMDW 201853Z 20011KT 10SM BKN250 26/11 A3010 RMK AO2 SLP186 T02560106
KMDW 201753Z 22013KT 10SM SCT250 24/12 A3013 RMK AO2 SLP196 T02440117 10244 20133 58019
KMDW 201653Z 20009KT 10SM SCT250 23/11 A3015 RMK AO2 SLP206 T02280111
KMDW 201553Z 21010KT 10SM SCT250 21/11 A3017 RMK AO2 SLP213 T02110111
KMDW 201453Z 21009KT 10SM FEW250 19/11 A3018 RMK AO2 SLP218 T01890106 50006
KMDW 201353Z 20007KT 10SM FEW250 16/11 A3019 RMK AO2 SLP220 T01610106
KMDW 201253Z 20006KT 10SM FEW250 14/10 A3018 RMK AO2 SLP217 T01390100
KMDW 201153Z 19006KT 10SM FEW250 14/09 A3017 RMK AO2 SLP214 T01390094 10144 20122 51005
KMDW 201053Z 19005KT 10SM CLR 13/09 A3017 RMK AO2 SLP214 T01330094
KMDW 200953Z 19004KT 10SM CLR 13/09 A3016 RMK AO2 SLP212 T01280089
KMDW 200853Z 19005KT 10SM CLR 13/07 A3015 RMK AO2 SLP208 T01280072 55000
KMDW 200753Z 19004KT 10SM CLR 13/05 A3015 RMK AO2 SLP207 T01330050
KMDW 200653Z 18005KT 10SM CLR 14/03 A3015 RMK AO2 SLP206 T01390028
KMDW 200553Z 17005KT 10SM FEW250 14/02 A3015 RMK AO2 SLP206 T01440017 10161 20139 402060117 58003
KMDW 200453Z 16006KT 10SM FEW250 14/02 A3015 RMK AO2 SLP208 T01440017
KMDW 200353Z 15005KT 10SM FEW250 15/02 A3016 RMK AO2 SLP210 T01500017
KMDW 200253Z 15005KT 10SM SCT250 15/04 A3016 RMK AO2 SLP210 T01500039 56004
KMDW 200153Z 13005KT 10SM BKN250 14/06 A3016 RMK AO2 SLP212 T01440056
KMDW 200053Z 13004KT 10SM BKN250 15/04 A3017 RMK AO2 SLP215 T01500044
KMDW 192353Z 12005KT 10SM BKN250 16/00 A3017 RMK AO2 SLP217 T01560000 10206 20156 55000
KMDW 192253Z VRB06KT 10SM BKN250 17/M02 A3017 RMK AO2 SLP214 T01721022
KMDW 192153Z 09007KT 10SM BKN250 18/M04 A3017 RMK AO2 SLP216 T01831044
KMDW 192053Z 11005KT 10SM BKN250 19/M05 A3017 RMK AO2 SLP215 T01941050 55004
KMDW 191953Z 10008KT 10SM BKN250 19/M04 A3017 RMK AO2 SLP214 T01941039
KMDW 191853Z 16003KT 10SM BKN250 20/M05 A3017 RMK AO2 SLP214 T02001050
KMDW 191753Z 02003KT 10SM SCT250 20/M06 A3018 RMK AO2 SLP218 T02001056 10206 20117 50001
KMDW 191653Z 06004KT 10SM SCT250 19/M04 A3020 RMK AO2 SLP222 T01941039
KMDW 191553Z 05006KT 10SM SCT250 18/M03 A3019 RMK AO2 SLP220 T01781033